Time;durP1;ratioP1;P1;durP2;ratioP2;P2;SDS_P1;SDS_P2;PMS_P1;PMS_P2;Temp;Humidity;BMP_temperature;BMP_pressure;BME280_temperature;BME280_humidity;BME280_pressure;Samples;Min_cycle;Max_cycle;Signal;HPM_P1;HPM_P2
2023/11/30 00:02:06;;;;;;;9.05;3.75;;;;;;;-146.27;86.07;34297.44;5096387;28;20434;-68
2023/11/30 00:04:32;;;;;;;7.65;3.70;;;;;;;-146.27;85.97;34309.34;5101958;28;20032;-68
2023/11/30 00:06:57;;;;;;;5.93;3.83;;;;;;;-146.27;86.16;34265.69;5103947;28;20031;-69
2023/11/30 00:09:22;;;;;;;9.80;4.10;;;;;;;-146.27;86.20;34239.91;5095559;28;20402;-68
2023/11/30 00:11:48;;;;;;;6.47;4.22;;;;;;;-146.27;86.56;34255.78;5101892;28;20531;-68
2023/11/30 00:14:13;;;;;;;7.68;4.30;;;;;;;-146.27;86.63;34259.75;5092753;28;20035;-68
2023/11/30 00:16:38;;;;;;;9.55;4.70;;;;;;;-146.27;86.46;34245.84;5093512;28;20042;-69
2023/11/30 00:19:05;;;;;;;8.40;4.80;;;;;;;-146.27;87.04;34241.88;5094305;28;20110;-70
2023/11/30 00:21:30;;;;;;;8.52;4.60;;;;;;;-146.27;86.72;34212.09;5105214;28;20028;-68
2023/11/30 00:23:56;;;;;;;11.05;5.28;;;;;;;-146.27;87.05;34204.16;5104234;28;20120;-69
2023/11/30 00:26:21;;;;;;;10.90;5.90;;;;;;;-146.27;86.65;34220.06;5106425;28;20019;-68
2023/11/30 00:28:46;;;;;;;6.93;4.80;;;;;;;-146.27;86.46;34186.31;5111363;28;20550;-69
2023/11/30 00:31:12;;;;;;;10.30;5.25;;;;;;;-146.27;86.43;34194.25;5100600;27;20081;-69
2023/11/30 00:33:37;;;;;;;11.32;5.53;;;;;;;-146.27;86.46;34220.06;5095625;28;20336;-70
2023/11/30 00:36:03;;;;;;;8.70;5.65;;;;;;;-146.27;86.32;34192.25;5098930;28;20035;-70
2023/11/30 00:38:28;;;;;;;9.60;5.50;;;;;;;-146.27;86.18;34212.09;5100856;28;20019;-68
2023/11/30 00:40:53;;;;;;;9.65;6.13;;;;;;;-146.27;86.21;34198.22;5096870;28;20103;-69
2023/11/30 00:43:19;;;;;;;13.27;5.32;;;;;;;-146.27;85.88;34186.31;5103345;28;20135;-69
2023/11/30 00:45:44;;;;;;;9.75;5.05;;;;;;;-146.27;85.76;34208.13;5092111;28;20024;-69
2023/11/30 00:48:09;;;;;;;8.68;6.25;;;;;;;-146.27;85.50;34218.06;5105556;28;20031;-69
2023/11/30 00:50:35;;;;;;;10.63;5.85;;;;;;;-146.27;86.10;34229.97;5106570;28;20019;-68
2023/11/30 00:53:00;;;;;;;7.63;5.53;;;;;;;-146.27;86.10;34251.81;5094156;28;20070;-68
2023/11/30 00:55:26;;;;;;;13.38;6.68;;;;;;;-146.27;85.78;34239.91;5098941;28;20028;-69
2023/11/30 00:57:51;;;;;;;9.98;6.20;;;;;;;-146.27;86.13;34257.75;5107853;28;20024;-68
2023/11/30 01:00:16;;;;;;;9.98;6.35;;;;;;;-146.27;86.22;34259.75;5104483;28;20495;-69
2023/11/30 01:02:42;;;;;;;11.65;6.78;;;;;;;-146.27;86.22;34279.59;5099783;28;20426;-69
2023/11/30 01:05:08;;;;;;;12.95;6.45;;;;;;;-146.27;86.32;34291.50;5105998;28;20477;-67
2023/11/30 01:07:35;;;;;;;11.95;6.72;;;;;;;-146.27;85.95;34295.47;5107469;28;20492;-69
2023/11/30 01:10:00;;;;;;;13.30;6.65;;;;;;;-146.27;85.88;34259.75;5106463;28;20116;-68
2023/11/30 01:12:26;;;;;;;13.52;6.18;;;;;;;-146.27;85.83;34291.50;5111632;28;20084;-69
2023/11/30 01:14:53;;;;;;;10.93;6.20;;;;;;;-146.27;85.96;34263.72;5109845;28;20504;-69
2023/11/30 01:17:19;;;;;;;10.00;6.28;;;;;;;-146.27;85.75;34291.50;5099579;28;20153;-69
2023/11/30 01:19:44;;;;;;;14.25;7.10;;;;;;;-146.27;86.11;34305.38;5095293;28;20127;-69
2023/11/30 01:22:11;;;;;;;10.85;6.68;;;;;;;-146.27;85.86;34303.41;5079269;28;20048;-69
2023/11/30 01:24:37;;;;;;;11.35;7.00;;;;;;;-146.27;86.28;34299.44;5101799;28;20028;-69
2023/11/30 01:27:02;;;;;;;10.48;7.65;;;;;;;-146.27;85.98;34283.56;5097023;28;20541;-69
2023/11/30 01:29:28;;;;;;;17.52;7.43;;;;;;;-146.27;86.46;34297.44;5093346;28;20028;-68
2023/11/30 01:31:53;;;;;;;14.88;7.57;;;;;;;-146.27;86.41;34321.25;5097688;28;20035;-68
2023/11/30 01:34:18;;;;;;;10.88;7.22;;;;;;;-146.27;86.70;34279.59;5106892;28;20019;-70
2023/11/30 01:36:44;;;;;;;12.70;6.75;;;;;;;-146.27;86.79;34293.47;5105967;28;20266;-69
2023/11/30 01:39:10;;;;;;;12.77;8.15;;;;;;;-146.27;87.23;34287.53;5095155;28;20026;-69
2023/11/30 01:41:38;;;;;;;14.55;7.18;;;;;;;-146.27;86.84;34311.34;5093155;28;20027;-70
2023/11/30 01:44:04;;;;;;;14.60;8.13;;;;;;;-146.27;86.49;34309.34;5100063;28;20051;-68
2023/11/30 01:46:30;;;;;;;11.98;8.35;;;;;;;-146.27;86.37;34277.59;5097903;28;20063;-68
2023/11/30 01:48:57;;;;;;;16.27;7.55;;;;;;;-146.27;86.79;34279.59;5090513;28;20023;-66
2023/11/30 01:51:24;;;;;;;12.85;7.40;;;;;;;-146.27;86.66;34283.56;5091741;28;20032;-69
2023/11/30 01:53:51;;;;;;;13.38;7.85;;;;;;;-146.27;86.89;34289.50;5108414;28;20435;-69
2023/11/30 01:56:16;;;;;;;14.88;7.85;;;;;;;-146.27;86.90;34291.50;5097632;28;20430;-69
2023/11/30 01:58:42;;;;;;;12.23;8.05;;;;;;;-146.27;86.29;34269.66;5104759;28;20024;-69
2023/11/30 02:01:08;;;;;;;17.73;8.48;;;;;;;-146.27;86.20;34255.78;5090854;28;20476;-69
2023/11/30 02:03:34;;;;;;;17.73;9.35;;;;;;;-146.27;85.64;34267.69;5091867;28;20086;-68
2023/11/30 02:06:00;;;;;;;14.23;8.40;;;;;;;-146.27;86.34;34281.56;5096367;28;20032;-69
2023/11/30 02:08:25;;;;;;;18.15;8.73;;;;;;;-146.27;85.86;34317.28;5087529;28;20388;-69
2023/11/30 02:24:18;;;;;;;17.50;9.55;;;;;;;-146.27;86.81;34220.06;5092424;28;20563;-69
2023/11/30 02:26:43;;;;;;;16.70;9.80;;;;;;;-146.27;86.64;34327.22;5080395;28;20032;-68
2023/11/30 02:29:09;;;;;;;15.48;9.27;;;;;;;-146.27;86.67;34327.22;5090020;28;20436;-68
2023/11/30 02:31:34;;;;;;;20.00;9.63;;;;;;;-146.27;87.06;34235.94;5090053;28;20027;-69
2023/11/30 02:33:59;;;;;;;16.90;9.50;;;;;;;-146.27;87.20;34263.72;5102762;28;20115;-69
2023/11/30 02:36:25;;;;;;;19.23;9.82;;;;;;;-146.27;87.06;34331.19;5097459;28;20363;-69
2023/11/30 02:38:50;;;;;;;17.70;9.45;;;;;;;-146.27;87.04;34303.41;5096564;28;20027;-69
2023/11/30 02:41:17;;;;;;;22.17;11.02;;;;;;;-146.27;86.99;34319.28;5096743;28;20142;-69
2023/11/30 02:43:43;;;;;;;20.15;9.85;;;;;;;-146.27;86.65;34343.09;5103259;28;20455;-70
2023/11/30 02:46:09;;;;;;;14.85;9.40;;;;;;;-146.27;86.69;34331.19;5077415;28;20023;-68
2023/11/30 02:48:36;;;;;;;15.77;10.40;;;;;;;-146.27;86.62;34313.31;5091237;28;20766;-68
2023/11/30 02:51:01;;;;;;;16.70;9.48;;;;;;;-146.27;86.70;34311.34;5079309;28;20034;-70
2023/11/30 02:53:27;;;;;;;18.00;10.15;;;;;;;-146.27;87.48;34333.16;5095204;28;20103;-69
2023/11/30 02:55:52;;;;;;;16.65;9.77;;;;;;;-146.27;87.36;34319.28;5098735;28;20048;-70
2023/11/30 02:58:17;;;;;;;19.55;10.63;;;;;;;-146.27;87.26;34285.53;5095836;28;20436;-69
2023/11/30 03:00:43;;;;;;;20.88;10.70;;;;;;;-146.27;87.04;34303.41;5099830;28;20113;-69
2023/11/30 03:03:08;;;;;;;15.10;8.80;;;;;;;-146.27;87.05;34347.06;5100908;28;20047;-68
2023/11/30 03:05:33;;;;;;;16.38;9.30;;;;;;;-146.27;86.97;34319.28;5101931;28;20035;-69
2023/11/30 03:07:59;;;;;;;16.90;9.35;;;;;;;-146.27;87.45;34331.19;5097884;28;20106;-69
2023/11/30 03:10:24;;;;;;;14.85;9.52;;;;;;;-146.27;87.11;34362.94;5095660;28;20066;-69
2023/11/30 03:12:49;;;;;;;22.58;11.00;;;;;;;-146.27;86.86;34279.59;5103931;28;20034;-70
2023/11/30 03:15:18;;;;;;;19.52;11.18;;;;;;;-146.27;86.86;34339.13;5094301;28;20024;-69
2023/11/30 03:17:43;;;;;;;20.50;10.98;;;;;;;-146.27;87.13;34351.03;5099377;28;20916;-69
2023/11/30 03:20:09;;;;;;;15.77;10.55;;;;;;;-146.27;86.88;34329.19;5092419;28;20024;-68
2023/11/30 03:22:35;;;;;;;23.98;10.82;;;;;;;-146.27;87.04;34368.91;5103315;28;20387;-68
2023/11/30 03:25:00;;;;;;;15.10;9.68;;;;;;;-146.27;87.24;34347.06;5105056;28;20048;-68
2023/11/30 03:27:25;;;;;;;17.15;11.07;;;;;;;-146.27;87.08;34299.44;5083170;28;20024;-68
2023/11/30 03:29:51;;;;;;;15.77;9.57;;;;;;;-146.27;86.89;34360.97;5100190;28;20027;-68
2023/11/30 03:32:16;;;;;;;17.00;9.30;;;;;;;-146.27;86.64;34370.88;5091148;28;20031;-69
2023/11/30 03:34:41;;;;;;;22.85;9.90;;;;;;;-146.27;86.77;34343.09;5088892;28;20023;-68
2023/11/30 03:37:07;;;;;;;16.27;9.88;;;;;;;-146.27;86.64;34358.97;5092965;28;20468;-69
2023/11/30 03:39:32;;;;;;;19.80;9.57;;;;;;;-146.27;86.59;34392.72;5092960;28;20036;-70
2023/11/30 03:41:57;;;;;;;15.23;10.25;;;;;;;-146.27;87.04;34390.72;5092266;28;20059;-69
2023/11/30 03:44:23;;;;;;;20.88;9.60;;;;;;;-146.27;86.66;34364.94;5090019;28;20058;-69
2023/11/30 03:46:48;;;;;;;19.02;10.13;;;;;;;-146.27;86.54;34384.78;5089947;28;20028;-68
2023/11/30 03:49:13;;;;;;;20.88;11.00;;;;;;;-146.27;86.76;34388.75;5094309;28;20020;-69
2023/11/30 03:51:39;;;;;;;13.80;9.15;;;;;;;-146.27;86.51;34374.84;5093880;28;20046;-69
2023/11/30 03:54:04;;;;;;;16.90;11.00;;;;;;;-146.27;86.32;34408.59;5089630;28;20380;-70
2023/11/30 03:56:32;;;;;;;25.90;10.52;;;;;;;-146.27;85.91;34374.84;5094359;28;20383;-69
2023/11/30 03:58:58;;;;;;;33.65;11.60;;;;;;;-146.27;85.94;34430.41;5096420;28;20032;-69
2023/11/30 04:01:24;;;;;;;22.35;11.45;;;;;;;-146.27;86.40;34410.56;5099195;28;20027;-69
2023/11/30 04:03:49;;;;;;;77.93;11.70;;;;;;;-146.27;86.40;34410.56;5092110;28;20103;-68
2023/11/30 04:06:22;;;;;;;47.40;10.85;;;;;;;-146.27;86.54;34438.34;5094752;28;20028;-69
2023/11/30 04:08:49;;;;;;;25.90;11.38;;;;;;;-146.27;86.36;34406.59;5100485;28;20027;-69
2023/11/30 04:11:15;;;;;;;16.17;10.07;;;;;;;-146.27;86.75;34390.72;5107327;28;20472;-68
2023/11/30 04:13:43;;;;;;;35.72;11.75;;;;;;;-146.27;87.04;34422.47;5098168;28;20419;-67
2023/11/30 04:16:09;;;;;;;23.02;12.55;;;;;;;-146.27;87.16;34351.03;5097955;28;20023;-69
2023/11/30 04:18:34;;;;;;;46.85;12.23;;;;;;;-146.27;87.05;34406.59;5096945;28;20387;-70
2023/11/30 04:21:00;;;;;;;34.00;12.60;;;;;;;-146.27;86.93;34366.91;5104575;28;20023;-69
2023/11/30 04:23:25;;;;;;;27.35;12.52;;;;;;;-146.27;87.39;34362.94;5093219;28;20028;-69
2023/11/30 04:25:50;;;;;;;65.10;13.63;;;;;;;-146.27;87.22;34418.50;5107749;28;20127;-69
2023/11/30 04:28:16;;;;;;;58.00;13.52;;;;;;;-146.27;87.24;34400.66;5096501;28;20032;-69
2023/11/30 04:30:41;;;;;;;38.80;12.88;;;;;;;-146.27;87.43;34390.72;5097693;28;20020;-69
2023/11/30 04:33:06;;;;;;;37.47;13.75;;;;;;;-146.27;87.05;34394.69;5092544;28;20105;-68
2023/11/30 04:35:31;;;;;;;49.35;14.25;;;;;;;-146.27;86.51;34398.66;5099877;28;20131;-69
2023/11/30 04:37:57;;;;;;;36.10;14.43;;;;;;;-146.27;86.94;34364.94;5109603;28;20035;-69
2023/11/30 04:40:23;;;;;;;36.83;14.40;;;;;;;-146.27;86.77;34408.59;5099701;28;20111;-68
2023/11/30 04:42:48;;;;;;;36.13;14.70;;;;;;;-146.27;86.75;34386.75;5105781;28;20480;-70
2023/11/30 04:45:13;;;;;;;28.13;14.52;;;;;;;-146.27;86.52;34384.78;5098777;28;20384;-69
2023/11/30 04:47:39;;;;;;;34.30;15.43;;;;;;;-146.27;86.78;34378.81;5092823;28;20020;-68
2023/11/30 04:50:06;;;;;;;33.42;15.55;;;;;;;-146.27;86.92;34412.56;5093184;28;20059;-69
2023/11/30 04:52:31;;;;;;;37.65;15.90;;;;;;;-146.27;87.38;34378.81;5096106;28;20081;-68
2023/11/30 04:54:57;;;;;;;33.78;16.88;;;;;;;-146.27;87.26;34400.66;5092668;28;20410;-69
2023/11/30 04:57:22;;;;;;;38.35;16.83;;;;;;;-146.27;87.02;34392.72;5099449;28;20472;-70
2023/11/30 04:59:48;;;;;;;37.63;17.77;;;;;;;-146.27;87.49;34384.78;5093617;28;20023;-69
2023/11/30 05:02:13;;;;;;;49.38;17.00;;;;;;;-146.27;87.32;34374.84;5100131;28;20396;-69
2023/11/30 05:04:39;;;;;;;50.50;16.55;;;;;;;-146.27;87.77;34378.81;5097668;28;20149;-68
2023/11/30 05:07:04;;;;;;;44.47;16.50;;;;;;;-146.27;87.70;34394.69;5106556;28;20026;-69
2023/11/30 05:09:29;;;;;;;98.53;17.35;;;;;;;-146.27;87.58;34392.72;5100195;28;20020;-69
2023/11/30 05:11:55;;;;;;;139.88;17.58;;;;;;;-146.27;87.48;34370.88;5096632;28;20015;-70
2023/11/30 05:14:20;;;;;;;97.13;17.08;;;;;;;-146.27;87.98;34378.81;5092849;28;20432;-68
2023/11/30 05:16:45;;;;;;;70.38;16.55;;;;;;;-146.27;87.94;34412.56;5095911;28;20024;-69
2023/11/30 05:19:11;;;;;;;103.50;17.60;;;;;;;-146.27;87.70;34368.91;5098416;28;20372;-69
2023/11/30 05:21:36;;;;;;;67.72;16.02;;;;;;;-146.27;87.78;34398.66;5097087;28;20101;-70
2023/11/30 05:24:02;;;;;;;146.38;18.38;;;;;;;-146.27;87.47;34420.50;5074005;28;20019;-70
2023/11/30 05:26:27;;;;;;;55.63;17.90;;;;;;;-146.27;87.54;34408.59;5106248;28;20035;-69
2023/11/30 05:28:52;;;;;;;155.35;18.50;;;;;;;-146.27;87.39;34372.88;5093715;28;20067;-70
2023/11/30 05:31:18;;;;;;;92.88;18.50;;;;;;;-146.27;87.31;34394.69;5092981;28;20028;-70
2023/11/30 05:33:43;;;;;;;111.00;18.88;;;;;;;-146.27;87.10;34414.53;5094217;28;20032;-69
2023/11/30 05:36:09;;;;;;;85.32;18.98;;;;;;;-146.27;87.16;34414.53;5093525;28;20027;-68
2023/11/30 05:38:34;;;;;;;82.95;18.50;;;;;;;-146.27;87.40;34406.59;5103241;28;20087;-69
2023/11/30 05:40:59;;;;;;;54.22;17.95;;;;;;;-146.27;87.74;34418.50;5096252;28;20027;-68
2023/11/30 05:43:25;;;;;;;67.15;19.15;;;;;;;-146.27;87.53;34360.97;5091659;28;20042;-69
2023/11/30 05:45:50;;;;;;;315.10;24.50;;;;;;;-146.27;87.65;34360.97;5101837;28;20451;-68
2023/11/30 05:48:16;;;;;;;138.63;21.65;;;;;;;-146.27;88.02;34406.59;5091654;28;20035;-68
2023/11/30 05:50:41;;;;;;;111.95;19.38;;;;;;;-146.27;87.70;34378.81;5103358;28;20047;-69
2023/11/30 05:53:07;;;;;;;179.02;21.27;;;;;;;-146.27;87.70;34406.59;5094689;28;20032;-69
2023/11/30 05:55:32;;;;;;;83.35;19.00;;;;;;;-146.27;87.78;34422.47;5091081;28;20047;-69
2023/11/30 05:57:57;;;;;;;115.47;18.52;;;;;;;-146.27;87.52;34382.78;5091470;28;20028;-69
2023/11/30 06:00:23;;;;;;;120.20;19.63;;;;;;;-146.27;87.83;34394.69;5091404;28;20321;-69
2023/11/30 06:02:48;;;;;;;174.38;19.77;;;;;;;-146.27;87.39;34416.53;5091307;28;20081;-71
2023/11/30 06:05:13;;;;;;;169.20;19.33;;;;;;;-146.27;87.40;34412.56;5100276;28;20024;-70
2023/11/30 06:07:39;;;;;;;155.43;19.88;;;;;;;-146.27;87.63;34422.47;5096925;28;20036;-70
2023/11/30 06:10:08;;;;;;;107.63;18.88;;;;;;;-146.27;87.72;34398.66;5094147;28;20436;-69
2023/11/30 06:12:33;;;;;;;218.10;20.15;;;;;;;-146.27;87.56;34418.50;5088237;28;20044;-69
2023/11/30 06:14:59;;;;;;;181.10;19.88;;;;;;;-146.27;88.15;34474.09;5098043;28;20026;-69
2023/11/30 06:17:24;;;;;;;140.60;19.95;;;;;;;-146.27;88.17;34416.53;5100799;28;20030;-70
2023/11/30 06:19:49;;;;;;;117.43;20.42;;;;;;;-146.27;88.04;34438.34;5097137;28;20031;-69
2023/11/30 06:22:15;;;;;;;46.53;17.75;;;;;;;-146.27;88.07;34424.47;5099895;28;20031;-68
2023/11/30 06:24:40;;;;;;;217.38;22.92;;;;;;;-146.27;88.01;34404.63;5093977;28;20051;-69
2023/11/30 06:27:07;;;;;;;91.40;19.70;;;;;;;-146.27;87.81;34408.59;5097994;28;20068;-70
2023/11/30 06:29:32;;;;;;;87.20;21.35;;;;;;;-146.27;88.10;34414.53;5101794;28;20028;-67
2023/11/30 06:31:59;;;;;;;143.10;21.90;;;;;;;-146.27;87.83;34446.28;5096161;28;20448;-70
2023/11/30 06:34:25;;;;;;;94.13;20.17;;;;;;;-146.27;88.09;34414.53;5097335;28;20038;-69
2023/11/30 06:36:50;;;;;;;85.35;20.20;;;;;;;-146.27;87.80;34386.75;5098026;28;20024;-69
2023/11/30 06:39:15;;;;;;;61.65;20.33;;;;;;;-146.27;87.76;34422.47;5098714;28;20016;-68
2023/11/30 06:41:41;;;;;;;49.88;21.85;;;;;;;-146.27;88.31;34404.63;5095417;28;20080;-69
2023/11/30 06:44:06;;;;;;;74.70;22.30;;;;;;;-146.27;87.96;34384.78;5091057;28;20028;-69
2023/11/30 06:46:32;;;;;;;49.33;22.50;;;;;;;-146.27;87.89;34422.47;5097309;28;20122;-69
2023/11/30 06:48:57;;;;;;;56.92;22.17;;;;;;;-146.27;87.94;34362.94;5095770;27;20028;-69
2023/11/30 06:51:22;;;;;;;53.00;22.25;;;;;;;-146.27;88.46;34390.72;5096643;27;20131;-68
2023/11/30 06:53:47;;;;;;;56.00;23.65;;;;;;;-146.27;88.38;34366.91;5109099;27;20024;-69
2023/11/30 06:56:13;;;;;;;51.42;20.08;;;;;;;-146.27;88.00;34374.84;5095527;28;20015;-70
2023/11/30 06:58:38;;;;;;;55.75;22.08;;;;;;;-146.27;87.96;34382.78;5092805;28;20084;-68
2023/11/30 07:01:08;;;;;;;69.47;23.75;;;;;;;-146.27;88.00;34372.88;5100089;28;20422;-68
2023/11/30 07:03:34;;;;;;;78.97;24.15;;;;;;;-146.27;88.43;34392.72;5091271;28;20169;-71
2023/11/30 07:05:59;;;;;;;75.57;23.88;;;;;;;-146.27;88.19;34362.94;5093354;28;20392;-68
2023/11/30 07:08:24;;;;;;;65.13;22.90;;;;;;;-146.27;87.99;34388.75;5096553;28;20035;-69
2023/11/30 07:10:50;;;;;;;66.28;23.67;;;;;;;-146.27;88.09;34414.53;5089691;28;20031;-69
2023/11/30 07:13:16;;;;;;;45.17;22.38;;;;;;;-146.27;88.10;34408.59;5096934;28;20280;-69
2023/11/30 07:15:43;;;;;;;69.50;23.88;;;;;;;-146.27;88.06;34353.00;5078269;28;20499;-68
2023/11/30 07:18:08;;;;;;;54.42;22.45;;;;;;;-146.27;88.03;34398.66;5092564;28;20019;-68
2023/11/30 07:20:34;;;;;;;55.05;23.10;;;;;;;-146.27;87.72;34404.63;5103118;28;20035;-70
2023/11/30 07:22:59;;;;;;;49.33;22.27;;;;;;;-146.27;87.75;34412.56;5098144;28;20094;-69
2023/11/30 07:25:25;;;;;;;59.55;22.65;;;;;;;-146.27;87.89;34442.31;5094241;28;20432;-69
2023/11/30 07:27:53;;;;;;;57.22;23.52;;;;;;;-146.27;88.33;34422.47;5102943;28;20028;-69
2023/11/30 07:30:19;;;;;;;59.13;22.52;;;;;;;-146.27;88.34;34414.53;5104604;28;20050;-69
2023/11/30 07:32:44;;;;;;;60.15;24.27;;;;;;;-146.27;88.70;34418.50;5091479;28;20464;-69
2023/11/30 07:35:09;;;;;;;60.92;22.98;;;;;;;-146.27;88.42;34394.69;5097868;28;20032;-70
2023/11/30 07:37:35;;;;;;;71.47;22.80;;;;;;;-146.27;88.38;34404.63;5103337;28;20149;-70
2023/11/30 07:40:00;;;;;;;54.20;22.00;;;;;;;-146.27;88.35;34374.84;5100988;28;20032;-68
2023/11/30 07:42:26;;;;;;;64.65;21.40;;;;;;;-146.27;88.58;34410.56;5096488;28;20331;-69
2023/11/30 07:44:51;;;;;;;54.13;24.02;;;;;;;-146.27;88.56;34378.81;5101449;28;20058;-69
2023/11/30 07:47:18;;;;;;;60.28;23.08;;;;;;;-146.27;88.34;34406.59;5105428;28;20542;-70
2023/11/30 07:49:44;;;;;;;52.00;20.83;;;;;;;-146.27;88.47;34410.56;5100679;28;20043;-69
2023/11/30 07:52:09;;;;;;;53.95;20.02;;;;;;;-146.27;88.37;34408.59;5101475;28;20415;-69
2023/11/30 07:54:35;;;;;;;52.53;19.88;;;;;;;-146.27;88.29;34378.81;5094413;28;20060;-67
2023/11/30 07:57:00;;;;;;;46.05;21.33;;;;;;;-146.27;88.21;34390.72;5101877;28;20023;-69
2023/11/30 07:59:25;;;;;;;42.25;19.75;;;;;;;-146.27;88.42;34364.94;5102332;28;20043;-69
2023/11/30 08:01:51;;;;;;;46.92;21.17;;;;;;;-146.27;88.45;34366.91;5104652;28;20485;-69
2023/11/30 08:04:16;;;;;;;85.13;20.92;;;;;;;-146.27;88.43;34422.47;5107411;28;20512;-69
2023/11/30 08:06:42;;;;;;;92.18;20.50;;;;;;;-146.27;88.48;34357.00;5101593;28;20027;-69
2023/11/30 08:09:08;;;;;;;74.65;19.50;;;;;;;-146.27;88.43;34382.78;5102939;28;20387;-70
2023/11/30 08:11:33;;;;;;;212.43;22.80;;;;;;;-146.27;88.13;34358.97;5080665;28;20031;-69
2023/11/30 08:13:58;;;;;;;52.13;19.98;;;;;;;-146.27;88.33;34410.56;5109779;28;20118;-69
2023/11/30 08:16:24;;;;;;;155.32;23.25;;;;;;;-146.27;88.40;34410.56;5093123;28;20115;-70
2023/11/30 08:18:50;;;;;;;146.70;21.58;;;;;;;-146.27;88.16;34358.97;5093031;28;20047;-68
2023/11/30 08:21:15;;;;;;;126.78;20.60;;;;;;;-146.27;88.49;34382.78;5109348;27;20076;-69
2023/11/30 08:23:42;;;;;;;93.15;20.90;;;;;;;-146.27;88.58;34398.66;5097651;28;20024;-68
2023/11/30 08:26:07;;;;;;;161.18;23.08;;;;;;;-146.27;88.75;34410.56;5079020;28;20454;-69
2023/11/30 08:28:33;;;;;;;62.70;21.15;;;;;;;-146.27;88.66;34366.91;5106719;28;20028;-69
2023/11/30 08:31:01;;;;;;;87.20;19.75;;;;;;;-146.27;88.51;34347.06;5095185;28;20039;-68
2023/11/30 08:33:27;;;;;;;110.68;21.70;;;;;;;-146.27;88.23;34358.97;5106414;28;20019;-69
2023/11/30 08:35:53;;;;;;;59.95;20.50;;;;;;;-146.27;88.43;34345.06;5096116;28;20161;-68
2023/11/30 08:38:18;;;;;;;209.98;23.33;;;;;;;-146.27;88.16;34349.03;5108919;28;20032;-72
2023/11/30 08:40:44;;;;;;;125.55;19.98;;;;;;;-146.27;88.10;34358.97;5094453;28;20027;-69
2023/11/30 08:43:09;;;;;;;50.55;19.00;;;;;;;-146.27;87.97;34327.22;5095428;28;20023;-69
2023/11/30 08:45:34;;;;;;;107.25;20.42;;;;;;;-146.27;88.16;34366.91;5083054;28;20070;-69
2023/11/30 08:48:00;;;;;;;44.80;19.17;;;;;;;-146.27;87.64;34358.97;5097423;28;20051;-70
2023/11/30 08:50:25;;;;;;;63.60;20.38;;;;;;;-146.27;88.32;34362.94;5080085;28;20032;-68
2023/11/30 08:52:50;;;;;;;46.30;18.20;;;;;;;-146.27;88.08;34358.97;5094717;28;20020;-69
2023/11/30 08:55:16;;;;;;;32.72;18.52;;;;;;;-146.27;87.51;34309.34;5102259;28;20031;-68
2023/11/30 08:57:41;;;;;;;65.38;18.80;;;;;;;-146.27;87.64;34311.34;5109891;28;20031;-68
2023/11/30 09:00:11;;;;;;;72.88;19.23;;;;;;;-146.27;87.70;34339.13;5106568;28;20094;-68
2023/11/30 09:02:37;;;;;;;96.57;19.63;;;;;;;-146.27;87.78;34364.94;5097970;28;20042;-68
2023/11/30 09:05:03;;;;;;;47.88;19.35;;;;;;;-146.27;87.83;34343.09;5097374;28;20569;-70
2023/11/30 09:07:28;;;;;;;36.70;20.48;;;;;;;-146.27;87.96;34362.94;5099439;28;20114;-70
2023/11/30 09:09:53;;;;;;;41.88;21.60;;;;;;;-146.27;87.67;34335.16;5099345;28;20027;-69
2023/11/30 09:12:19;;;;;;;40.15;21.60;;;;;;;-146.27;88.10;34355.00;5100981;28;20110;-69
2023/11/30 09:14:44;;;;;;;46.35;23.45;;;;;;;-146.27;88.24;34323.25;5097194;28;20056;-69
2023/11/30 09:17:09;;;;;;;45.88;22.58;;;;;;;-146.27;88.13;34315.31;5095283;28;20024;-75
2023/11/30 09:19:35;;;;;;;51.15;21.73;;;;;;;-146.27;88.17;34311.34;5086269;28;20023;-67
2023/11/30 09:22:00;;;;;;;54.25;22.67;;;;;;;-146.27;88.15;34319.28;5094547;28;20032;-70
2023/11/30 09:24:25;;;;;;;51.50;22.95;;;;;;;-146.27;87.69;34267.69;5098061;28;20040;-69
2023/11/30 09:26:51;;;;;;;41.17;22.90;;;;;;;-146.27;88.08;34309.34;5096118;28;20032;-70
2023/11/30 09:29:17;;;;;;;44.17;22.48;;;;;;;-146.27;88.15;34275.63;5097428;28;20118;-69
2023/11/30 09:31:43;;;;;;;48.97;24.33;;;;;;;-146.27;88.33;34263.72;5105750;28;20028;-68
2023/11/30 09:34:11;;;;;;;54.05;25.27;;;;;;;-146.27;88.35;34218.06;5108564;28;20411;-68
2023/11/30 09:36:38;;;;;;;42.17;23.73;;;;;;;-146.27;88.24;34218.06;5103075;28;20531;-69
2023/11/30 09:39:03;;;;;;;48.60;23.77;;;;;;;-146.27;87.92;34186.31;5094431;28;20069;-69
2023/11/30 09:41:29;;;;;;;41.50;22.45;;;;;;;-146.27;87.60;34192.25;5100545;28;20027;-68
2023/11/30 09:43:54;;;;;;;35.22;20.77;;;;;;;-146.27;87.46;34245.84;5102834;28;20532;-69
2023/11/30 09:46:20;;;;;;;33.17;19.20;;;;;;;-146.27;87.17;34231.97;5098327;28;20043;-70
2023/11/30 09:48:45;;;;;;;40.00;21.48;;;;;;;-146.27;87.36;34218.06;5105785;28;20023;-67
2023/11/30 09:51:19;;;;;;;39.67;21.50;;;;;;;-146.27;87.72;34214.09;5108184;28;20035;-70
2023/11/30 09:53:45;;;;;;;43.47;21.88;;;;;;;-146.27;87.88;34267.69;5096407;28;20105;-69
2023/11/30 09:56:11;;;;;;;41.17;23.45;;;;;;;-146.27;88.05;34243.88;5102531;28;20902;-68
2023/11/30 09:58:37;;;;;;;45.10;23.75;;;;;;;-146.27;87.54;34228.00;5096714;28;20020;-68
2023/11/30 10:01:04;;;;;;;41.47;22.48;;;;;;;-146.27;87.80;34239.91;5093853;28;20028;-69
2023/11/30 10:03:31;;;;;;;37.67;22.00;;;;;;;-146.27;87.59;34224.03;5090950;28;20066;-69
2023/11/30 10:05:56;;;;;;;46.78;25.65;;;;;;;-146.27;87.67;34226.00;5095703;28;20028;-69
2023/11/30 10:08:22;;;;;;;51.03;25.15;;;;;;;-146.27;87.78;34196.22;5096521;28;20111;-68
2023/11/30 10:10:48;;;;;;;45.75;24.48;;;;;;;-146.27;87.90;34184.31;5111552;28;20111;-70
2023/11/30 10:13:13;;;;;;;49.40;24.95;;;;;;;-146.27;87.78;34160.50;5104040;28;20027;-69
2023/11/30 10:15:39;;;;;;;47.10;25.73;;;;;;;-146.27;87.54;34166.47;5072036;28;20032;-68
2023/11/30 10:18:05;;;;;;;49.83;25.70;;;;;;;-146.27;87.18;34172.41;5092334;28;20143;-69
2023/11/30 10:20:30;;;;;;;52.55;24.52;;;;;;;-146.27;87.44;34164.47;5106264;28;20498;-68
2023/11/30 10:22:55;;;;;;;46.13;24.20;;;;;;;-146.27;87.34;34170.44;5111236;28;20078;-68
2023/11/30 10:25:21;;;;;;;49.38;25.52;;;;;;;-146.27;87.79;34212.09;5102711;28;20052;-69
2023/11/30 10:27:51;;;;;;;45.53;22.85;;;;;;;-146.27;87.33;34184.31;5096690;28;20501;-68
2023/11/30 10:30:18;;;;;;;42.20;23.25;;;;;;;-146.27;86.94;34168.44;5109293;28;20383;-69
2023/11/30 10:32:44;;;;;;;42.65;24.15;;;;;;;-146.27;87.78;34210.13;5095433;28;20031;-69
2023/11/30 10:35:14;;;;;;;42.35;23.10;;;;;;;-146.27;87.36;34196.22;5097660;28;20036;-69
2023/11/30 10:37:46;;;;;;;41.55;23.42;;;;;;;-146.27;87.26;34142.66;5090931;28;20035;-70
2023/11/30 10:40:12;;;;;;;47.85;24.25;;;;;;;-146.27;87.35;34192.25;5102401;28;20452;-68
2023/11/30 10:42:40;;;;;;;41.63;23.65;;;;;;;-146.27;86.67;34148.59;5096157;28;20686;-69
2023/11/30 10:45:08;;;;;;;39.25;21.83;;;;;;;-146.27;86.87;34132.72;5089334;28;20081;-67
2023/11/30 10:47:38;;;;;;;42.15;23.95;;;;;;;-146.27;86.51;34130.75;5089764;28;20907;-67
2023/11/30 10:50:05;;;;;;;48.17;23.88;;;;;;;-146.27;86.18;34104.94;5090515;28;20532;-69
2023/11/30 10:52:32;;;;;;;48.70;23.13;;;;;;;-146.27;86.40;34120.81;5100785;28;20110;-69
2023/11/30 10:55:04;;;;;;;42.47;24.17;;;;;;;-146.27;86.80;34116.84;5094032;28;20032;-69
2023/11/30 10:57:31;;;;;;;41.15;22.95;;;;;;;-146.27;86.18;34005.72;5106930;28;20028;-69
2023/11/30 10:59:58;;;;;;;40.85;22.23;;;;;;;-146.27;85.51;33973.97;5097071;28;20103;-69
2023/11/30 11:02:24;;;;;;;38.60;22.67;;;;;;;-146.27;85.13;34001.75;5099888;28;20059;-68
2023/11/30 11:04:52;;;;;;;38.00;22.40;;;;;;;-146.27;84.84;34013.66;5098099;28;20490;-69
2023/11/30 11:07:17;;;;;;;44.42;23.85;;;;;;;-146.27;85.63;34005.72;5106926;28;20098;-69
2023/11/30 11:09:43;;;;;;;43.45;23.52;;;;;;;-146.27;86.02;33940.22;5094964;28;20496;-69
2023/11/30 11:12:26;;;;;;;41.45;23.38;;;;;;;-146.27;85.62;33898.56;5101214;28;20464;-70